Time;durP1;ratioP1;P1;durP2;ratioP2;P2;SDS_P1;SDS_P2;PMS_P1;PMS_P2;Temp;Humidity;BMP_temperature;BMP_pressure;BME280_temperature;BME280_humidity;BME280_pressure;Samples;Min_cycle;Max_cycle;Signal;HPM_P1;HPM_P2
2022/04/07 00:00:20;;;;;;;11.75;6.97;;;;;;;8.08;100.00;98723.84;680195;28;1486;-78
2022/04/07 00:00:40;;;;;;;12.93;7.07;;;;;;;8.07;100.00;98727.34;677564;28;4462;-78
2022/04/07 00:01:00;;;;;;;14.27;7.10;;;;;;;8.03;100.00;98723.13;679806;28;1250;-78
2022/04/07 00:01:21;;;;;;;12.82;6.78;;;;;;;8.16;100.00;98724.50;677897;29;1570;-78
2022/04/07 00:01:41;;;;;;;10.73;6.00;;;;;;;8.17;100.00;98727.97;677649;28;1635;-78
2022/04/07 00:02:02;;;;;;;9.55;5.97;;;;;;;8.13;100.00;98711.56;681348;28;1514;-79
2022/04/07 00:02:23;;;;;;;12.18;6.45;;;;;;;8.18;100.00;98714.91;683900;28;1396;-79
2022/04/07 00:02:43;;;;;;;11.23;6.57;;;;;;;8.13;100.00;98719.38;682696;28;1417;-78
2022/04/07 00:03:03;;;;;;;9.65;5.88;;;;;;;8.18;100.00;98709.72;682830;28;1531;-78
2022/04/07 00:03:24;;;;;;;10.00;6.00;;;;;;;8.26;100.00;98703.44;683248;28;1441;-78
2022/04/07 00:03:44;;;;;;;9.95;6.20;;;;;;;8.27;100.00;98713.81;680238;28;4322;-78
2022/04/07 00:04:06;;;;;;;10.10;6.13;;;;;;;8.24;100.00;98708.69;677596;28;1620;-78
2022/04/07 00:04:27;;;;;;;9.30;5.88;;;;;;;8.25;100.00;98715.59;683265;28;1576;-79
2022/04/07 00:04:47;;;;;;;9.73;5.43;;;;;;;8.25;100.00;98714.72;684271;28;1683;-79
2022/04/07 00:05:08;;;;;;;9.10;5.20;;;;;;;8.21;100.00;98707.91;682816;28;1204;-78
2022/04/07 00:05:28;;;;;;;8.82;5.25;;;;;;;8.21;100.00;98713.97;682963;28;1417;-78
2022/04/07 00:05:49;;;;;;;9.60;5.40;;;;;;;8.24;100.00;98724.31;680905;28;1329;-78
2022/04/07 00:06:12;;;;;;;9.07;4.97;;;;;;;8.28;100.00;98722.44;678079;29;1676;-78
2022/04/07 00:06:33;;;;;;;8.73;5.28;;;;;;;8.37;100.00;98719.63;680547;28;1294;-78
2022/04/07 00:06:54;;;;;;;8.10;5.00;;;;;;;8.40;100.00;98719.53;677980;28;4256;-78
2022/04/07 00:07:14;;;;;;;8.90;5.20;;;;;;;8.41;100.00;98725.59;682626;28;1941;-78
2022/04/07 00:07:35;;;;;;;10.33;5.50;;;;;;;8.46;100.00;98729.81;681922;28;1554;-78
2022/04/07 00:07:55;;;;;;;9.57;4.93;;;;;;;8.52;100.00;98721.00;683893;28;1461;-78
2022/04/07 00:08:15;;;;;;;8.10;4.57;;;;;;;8.55;100.00;98722.66;685858;28;1447;-78
2022/04/07 00:08:36;;;;;;;8.33;4.60;;;;;;;8.54;100.00;98726.16;682377;28;1453;-78
2022/04/07 00:09:00;;;;;;;8.52;5.30;;;;;;;8.48;100.00;98722.81;682126;28;1541;-79
2022/04/07 00:09:21;;;;;;;7.93;5.38;;;;;;;8.47;100.00;98734.16;682460;28;1345;-78
2022/04/07 00:09:41;;;;;;;8.02;4.85;;;;;;;8.55;100.00;98730.47;678124;28;4255;-78
2022/04/07 00:10:02;;;;;;;7.77;5.00;;;;;;;8.50;100.00;98722.75;679538;28;1068;-78
2022/04/07 00:10:23;;;;;;;8.30;5.15;;;;;;;8.47;100.00;98733.28;680048;28;1312;-78
2022/04/07 00:10:44;;;;;;;10.87;5.10;;;;;;;8.52;100.00;98732.25;675694;29;1525;-78
2022/04/07 00:11:06;;;;;;;11.02;5.00;;;;;;;8.55;100.00;98748.69;678519;28;1962;-78
2022/04/07 00:11:26;;;;;;;8.18;4.63;;;;;;;8.50;100.00;98736.66;680318;28;4392;-78
2022/04/07 00:11:47;;;;;;;7.47;4.80;;;;;;;8.49;100.00;98739.31;678738;28;1362;-78
2022/04/07 00:12:07;;;;;;;6.70;4.77;;;;;;;8.40;100.00;98735.16;678905;28;1420;-78
2022/04/07 00:12:29;;;;;;;8.10;4.80;;;;;;;8.39;100.00;98749.09;675749;29;1659;-78
2022/04/07 00:12:49;;;;;;;8.93;4.75;;;;;;;8.32;100.00;98737.09;675424;28;4383;-78
2022/04/07 00:13:09;;;;;;;7.63;4.53;;;;;;;8.29;100.00;98737.19;676076;29;1523;-78
2022/04/07 00:13:30;;;;;;;6.60;4.20;;;;;;;8.25;100.00;98748.56;675933;29;1895;-79
2022/04/07 00:13:51;;;;;;;7.97;4.70;;;;;;;8.17;100.00;98740.97;679328;28;1456;-78
2022/04/07 00:14:11;;;;;;;8.23;4.80;;;;;;;8.22;100.00;98746.91;678042;28;1481;-78
2022/04/07 00:14:31;;;;;;;6.90;4.53;;;;;;;8.17;100.00;98746.19;680946;28;1759;-78
2022/04/07 00:14:52;;;;;;;7.73;4.37;;;;;;;8.16;100.00;98741.88;680112;28;1587;-78
2022/04/07 00:15:12;;;;;;;7.83;4.20;;;;;;;8.18;100.00;98740.94;676699;29;1472;-78
2022/04/07 00:15:33;;;;;;;7.23;4.40;;;;;;;8.17;100.00;98749.63;679018;28;1103;-78
2022/04/07 00:15:53;;;;;;;6.30;4.32;;;;;;;8.18;100.00;98733.13;681546;28;4291;-78
2022/04/07 00:16:14;;;;;;;7.18;4.15;;;;;;;8.26;100.00;98730.31;680639;28;849;-79
2022/04/07 00:16:34;;;;;;;6.90;4.30;;;;;;;8.23;100.00;98738.22;680671;28;1610;-78
2022/04/07 00:16:55;;;;;;;5.82;3.80;;;;;;;8.25;100.00;98730.34;683335;28;1128;-78
2022/04/07 00:17:15;;;;;;;6.67;3.80;;;;;;;8.26;100.00;98729.47;683801;28;1214;-78
2022/04/07 00:17:36;;;;;;;7.23;3.83;;;;;;;8.29;100.00;98726.78;679786;28;1613;-79
2022/04/07 00:17:57;;;;;;;6.80;3.90;;;;;;;8.32;100.00;98731.91;678359;28;1320;-78
2022/04/07 00:18:18;;;;;;;6.32;3.90;;;;;;;8.28;100.00;98723.31;675591;29;1038;-78
2022/04/07 00:18:39;;;;;;;6.40;4.00;;;;;;;8.32;100.00;98724.09;679276;28;4448;-78
2022/04/07 00:18:59;;;;;;;7.03;3.90;;;;;;;8.28;100.00;98727.66;678956;28;1468;-78
2022/04/07 00:19:22;;;;;;;7.13;3.97;;;;;;;8.36;100.00;98725.72;681668;28;1662;-78
2022/04/07 00:19:43;;;;;;;6.07;4.05;;;;;;;8.30;100.00;98726.72;681077;28;1234;-77
2022/04/07 00:20:04;;;;;;;6.53;3.80;;;;;;;8.31;100.00;98728.44;680208;28;1441;-78
2022/04/07 00:20:26;;;;;;;6.00;3.65;;;;;;;8.32;100.00;98722.34;685178;28;1417;-79
2022/04/07 00:20:47;;;;;;;6.03;3.80;;;;;;;8.45;100.00;98715.09;685008;28;1463;-78
2022/04/07 00:21:11;;;;;;;6.65;3.92;;;;;;;8.44;100.00;98710.75;682273;28;1771;-78
2022/04/07 00:21:42;;;;;;;6.20;3.90;;;;;;;8.39;100.00;98722.19;682432;28;1303;-78
2022/04/07 00:22:02;;;;;;;5.68;3.60;;;;;;;8.31;100.00;98717.19;676161;29;4746;-78
2022/04/07 00:22:22;;;;;;;5.40;3.60;;;;;;;8.36;100.00;98717.91;676972;29;1562;-78
2022/04/07 00:22:43;;;;;;;6.47;3.63;;;;;;;8.32;100.00;98713.66;679237;28;3590;-78
2022/04/07 00:23:04;;;;;;;6.37;3.50;;;;;;;8.28;100.00;98719.84;681343;28;1480;-78
2022/04/07 00:23:24;;;;;;;6.70;3.60;;;;;;;8.24;100.00;98713.03;681697;28;1430;-78
2022/04/07 00:23:44;;;;;;;6.13;3.80;;;;;;;8.30;100.00;98713.72;681697;28;1529;-78
2022/04/07 00:24:06;;;;;;;7.00;3.83;;;;;;;8.27;100.00;98713.81;683255;28;1374;-78
2022/04/07 00:24:27;;;;;;;6.55;3.90;;;;;;;8.23;100.00;98711.34;679119;28;1314;-78
2022/04/07 00:24:47;;;;;;;6.07;3.70;;;;;;;8.19;100.00;98729.59;676191;29;4270;-78
2022/04/07 00:25:07;;;;;;;5.78;3.55;;;;;;;8.13;100.00;98711.56;679320;28;1580;-78
2022/04/07 00:25:28;;;;;;;5.80;3.53;;;;;;;8.13;100.00;98708.97;678756;28;1495;-78
2022/04/07 00:25:49;;;;;;;6.40;3.58;;;;;;;8.14;100.00;98723.69;681169;28;1255;-79
2022/04/07 00:26:10;;;;;;;7.95;3.90;;;;;;;8.23;100.00;98719.16;678553;28;1337;-78
2022/04/07 00:26:31;;;;;;;7.05;3.90;;;;;;;8.23;100.00;98724.34;680193;28;1716;-78
2022/04/07 00:26:51;;;;;;;7.15;4.10;;;;;;;8.15;100.00;98725.38;683066;28;1407;-78
2022/04/07 00:27:12;;;;;;;6.93;4.00;;;;;;;8.19;100.00;98721.81;683342;28;1308;-78
2022/04/07 00:27:32;;;;;;;7.37;4.07;;;;;;;8.24;100.00;98719.09;675159;29;1574;-78
2022/04/07 00:27:53;;;;;;;8.82;3.83;;;;;;;8.30;100.00;98718.06;677194;28;4281;-78
2022/04/07 00:28:14;;;;;;;7.43;3.70;;;;;;;8.31;100.00;98706.78;683443;28;1535;-78
2022/04/07 00:28:35;;;;;;;6.30;3.67;;;;;;;8.32;100.00;98711.06;680438;28;1817;-78
2022/04/07 00:28:55;;;;;;;6.63;3.50;;;;;;;8.30;100.00;98724.13;678916;28;1573;-79
2022/04/07 00:29:17;;;;;;;5.65;3.08;;;;;;;8.29;100.00;98718.97;681078;28;1643;-78
2022/04/07 00:29:37;;;;;;;5.82;3.20;;;;;;;8.31;100.00;98714.59;676729;29;1407;-78
2022/04/07 00:29:58;;;;;;;5.60;3.30;;;;;;;8.40;100.00;98719.53;676785;29;1334;-78
2022/04/07 00:30:20;;;;;;;6.07;3.30;;;;;;;8.33;100.00;98721.47;683311;28;1412;-78
2022/04/07 00:30:41;;;;;;;6.22;3.28;;;;;;;8.33;100.00;98718.00;681898;28;4437;-78
2022/04/07 00:31:02;;;;;;;5.80;3.35;;;;;;;8.44;100.00;98704.69;680838;28;1416;-78
2022/04/07 00:31:22;;;;;;;6.28;3.42;;;;;;;8.40;100.00;98716.09;679664;28;835;-78
2022/04/07 00:31:42;;;;;;;7.07;3.40;;;;;;;8.33;100.00;98713.66;679471;28;1073;-78
2022/04/07 00:32:05;;;;;;;6.07;3.30;;;;;;;8.37;100.00;98713.56;678666;29;955;-78
2022/04/07 00:32:26;;;;;;;6.38;3.25;;;;;;;8.35;100.00;98713.63;679911;28;1193;-78
2022/04/07 00:32:50;;;;;;;7.17;3.37;;;;;;;8.30;100.00;98718.06;678061;28;1787;-77
2022/04/07 00:33:10;;;;;;;6.40;3.40;;;;;;;8.26;100.00;98719.06;679324;28;1419;-78
2022/04/07 00:33:31;;;;;;;8.35;3.50;;;;;;;8.26;100.00;98714.69;678100;28;1981;-78
2022/04/07 00:33:51;;;;;;;7.33;3.30;;;;;;;8.34;100.00;98715.34;682618;28;4283;-79
2022/04/07 00:34:12;;;;;;;7.13;3.25;;;;;;;8.33;100.00;98718.00;681814;28;1375;-78
2022/04/07 00:34:32;;;;;;;7.22;3.20;;;;;;;8.37;100.00;98719.63;679928;28;1683;-78
2022/04/07 00:34:54;;;;;;;7.53;3.43;;;;;;;8.46;100.00;98710.72;682727;28;1491;-79
2022/04/07 00:35:16;;;;;;;7.07;3.33;;;;;;;8.42;100.00;98709.06;676596;29;1074;-79
2022/04/07 00:35:37;;;;;;;6.22;3.00;;;;;;;8.48;100.00;98707.19;677740;29;948;-78
2022/04/07 00:35:57;;;;;;;5.53;3.10;;;;;;;8.41;100.00;98704.78;676518;28;1159;-78
2022/04/07 00:36:17;;;;;;;4.57;2.70;;;;;;;8.40;100.00;98703.91;678552;28;1452;-78
2022/04/07 00:36:39;;;;;;;4.30;2.50;;;;;;;8.44;100.00;98704.69;679262;28;4295;-78
2022/04/07 00:36:59;;;;;;;5.72;2.83;;;;;;;8.47;100.00;98704.63;679409;28;1656;-78
2022/04/07 00:37:23;;;;;;;4.83;2.67;;;;;;;8.43;100.00;98709.06;680161;28;1175;-78
2022/04/07 00:37:44;;;;;;;5.70;2.80;;;;;;;8.40;100.00;98709.09;678905;28;1474;-78
2022/04/07 00:38:04;;;;;;;5.30;2.60;;;;;;;8.48;100.00;98709.78;680118;28;1230;-79
2022/04/07 00:38:25;;;;;;;6.20;2.63;;;;;;;8.44;100.00;98708.13;679822;28;1634;-78
2022/04/07 00:38:45;;;;;;;5.40;2.70;;;;;;;8.42;100.00;98706.47;681825;28;1727;-79
2022/04/07 00:39:06;;;;;;;4.63;2.70;;;;;;;8.36;100.00;98699.69;681881;28;1227;-77
2022/04/07 00:39:26;;;;;;;4.93;2.57;;;;;;;8.44;100.00;98705.53;681406;28;1264;-78
2022/04/07 00:39:47;;;;;;;4.88;2.65;;;;;;;8.45;100.00;98696.88;680448;28;4272;-79
2022/04/07 00:40:08;;;;;;;4.10;2.30;;;;;;;8.47;100.00;98689.88;680377;28;1105;-78
2022/04/07 00:40:29;;;;;;;5.32;2.60;;;;;;;8.48;100.00;98701.13;678516;28;1298;-78
2022/04/07 00:40:50;;;;;;;5.32;2.67;;;;;;;8.45;100.00;98694.25;679898;28;1014;-78
2022/04/07 00:41:10;;;;;;;7.07;2.90;;;;;;;8.50;100.00;98694.13;680948;28;1169;-78
2022/04/07 00:41:31;;;;;;;7.10;2.90;;;;;;;8.47;100.00;98710.72;679824;28;1406;-78
2022/04/07 00:41:51;;;;;;;5.63;2.60;;;;;;;8.43;100.00;98702.97;677273;29;1206;-79
2022/04/07 00:42:11;;;;;;;6.20;2.57;;;;;;;8.52;100.00;98693.19;680540;28;1422;-78
2022/04/07 00:42:32;;;;;;;5.33;2.70;;;;;;;8.48;100.00;98686.34;681742;28;1021;-78
2022/04/07 00:42:53;;;;;;;6.15;3.05;;;;;;;8.45;100.00;98690.81;678991;28;4289;-78
2022/04/07 00:43:30;;;;;;;7.70;3.55;;;;;;;8.49;100.00;98693.28;678417;28;1289;-78
2022/04/07 00:43:51;;;;;;;7.20;3.20;;;;;;;8.46;100.00;98700.31;679513;28;1510;-78
2022/04/07 00:44:11;;;;;;;6.63;2.90;;;;;;;8.48;100.00;98686.34;678650;29;1025;-78
2022/04/07 00:44:32;;;;;;;7.05;2.80;;;;;;;8.42;100.00;98694.31;678660;28;1189;-78
2022/04/07 00:44:54;;;;;;;6.50;2.80;;;;;;;8.52;100.00;98685.38;677912;28;1402;-79
2022/04/07 00:45:16;;;;;;;5.40;2.75;;;;;;;8.54;100.00;98689.69;678760;28;1652;-78
2022/04/07 00:45:36;;;;;;;7.13;2.80;;;;;;;8.49;100.00;98695.03;679548;28;5133;-78
2022/04/07 00:45:58;;;;;;;6.03;2.70;;;;;;;8.46;100.00;98695.97;682916;28;1475;-78
2022/04/07 00:46:19;;;;;;;4.72;2.40;;;;;;;8.55;100.00;98686.19;678283;28;1590;-78
2022/04/07 00:46:40;;;;;;;4.47;2.50;;;;;;;8.54;100.00;98682.72;676116;29;1258;-79
2022/04/07 00:47:00;;;;;;;6.70;2.58;;;;;;;8.55;100.00;98681.84;673277;29;1796;-78
2022/04/07 00:47:22;;;;;;;7.73;2.40;;;;;;;8.49;100.00;98684.63;674846;29;1046;-78
2022/04/07 00:47:43;;;;;;;6.00;2.50;;;;;;;8.45;100.00;98677.78;677576;29;1413;-78
2022/04/07 00:48:04;;;;;;;5.53;2.60;;;;;;;8.43;100.00;98676.94;682039;28;1909;-78
2022/04/07 00:48:27;;;;;;;5.40;2.50;;;;;;;8.47;100.00;98682.06;681620;28;1344;-78
2022/04/07 00:48:51;;;;;;;4.97;2.47;;;;;;;8.42;100.00;98673.50;682340;28;4318;-78
2022/04/07 00:49:11;;;;;;;4.75;2.60;;;;;;;8.50;100.00;98681.97;679663;28;1181;-78
2022/04/07 00:49:32;;;;;;;6.13;2.40;;;;;;;8.44;100.00;98671.69;680073;28;1486;-79
2022/04/07 00:49:53;;;;;;;4.70;2.30;;;;;;;8.46;100.00;98685.56;681864;28;1784;-78
2022/04/07 00:50:16;;;;;;;4.65;2.30;;;;;;;8.48;100.00;98673.34;681040;28;1397;-79
2022/04/07 00:50:36;;;;;;;5.90;2.60;;;;;;;8.43;100.00;98666.50;680557;28;944;-78
2022/04/07 00:50:57;;;;;;;5.85;2.50;;;;;;;8.46;100.00;98671.66;679700;28;1370;-78
2022/04/07 00:51:17;;;;;;;6.25;2.20;;;;;;;8.43;100.00;98676.94;683010;28;1455;-79
2022/04/07 00:51:39;;;;;;;7.17;2.57;;;;;;;8.39;100.00;98676.19;682404;28;4364;-78
2022/04/07 00:52:00;;;;;;;7.30;2.70;;;;;;;8.40;100.00;98672.66;683678;28;1473;-78
2022/04/07 00:52:21;;;;;;;6.30;2.80;;;;;;;8.46;100.00;98662.13;679328;28;1620;-78
2022/04/07 00:52:45;;;;;;;7.25;2.80;;;;;;;8.45;100.00;98665.63;681005;28;1655;-78
2022/04/07 00:53:06;;;;;;;7.53;2.97;;;;;;;8.42;100.00;98672.63;677218;29;1600;-78
2022/04/07 00:53:26;;;;;;;7.75;3.40;;;;;;;8.41;100.00;98665.72;680965;28;1968;-79
2022/04/07 00:53:47;;;;;;;7.60;3.50;;;;;;;8.39;100.00;98678.78;678790;29;1376;-78
2022/04/07 00:54:08;;;;;;;8.60;3.53;;;;;;;8.48;100.00;98659.47;678964;28;1652;-79
2022/04/07 00:54:32;;;;;;;6.97;2.63;;;;;;;8.46;100.00;98666.47;678859;29;1566;-78
2022/04/07 00:54:52;;;;;;;5.80;2.70;;;;;;;8.52;100.00;98667.13;679354;28;4275;-78
2022/04/07 00:55:15;;;;;;;5.83;2.60;;;;;;;8.62;100.00;98674.69;679671;28;1522;-78
2022/04/07 00:55:37;;;;;;;6.88;2.53;;;;;;;8.60;100.00;98669.53;675971;29;1225;-79
2022/04/07 00:56:00;;;;;;;7.25;2.67;;;;;;;8.58;100.00;98670.47;675123;29;1258;-78
2022/04/07 00:56:21;;;;;;;7.50;2.50;;;;;;;8.55;100.00;98670.56;679337;28;1621;-78
2022/04/07 00:56:42;;;;;;;6.40;2.60;;;;;;;8.50;100.00;98671.56;674802;29;1309;-78
2022/04/07 00:57:03;;;;;;;5.13;2.30;;;;;;;8.50;100.00;98663.75;675422;29;1199;-78
2022/04/07 00:57:25;;;;;;;5.00;2.08;;;;;;;8.57;100.00;98660.94;679245;28;1075;-79
2022/04/07 00:57:46;;;;;;;6.07;2.05;;;;;;;8.63;100.00;98658.19;681441;28;4296;-80
2022/04/07 00:58:07;;;;;;;5.20;1.67;;;;;;;8.68;100.00;98666.69;681472;28;1746;-79
2022/04/07 00:58:32;;;;;;;4.60;1.95;;;;;;;8.67;100.00;98658.03;684229;28;1355;-79
2022/04/07 00:58:53;;;;;;;4.50;2.20;;;;;;;8.62;100.00;98666.88;683273;28;1661;-79
2022/04/07 00:59:17;;;;;;;3.90;1.83;;;;;;;8.60;100.00;98663.47;682049;28;1014;-79
2022/04/07 00:59:39;;;;;;;4.68;1.83;;;;;;;8.57;100.00;98654.00;677894;29;994;-79
2022/04/07 01:00:00;;;;;;;4.85;1.95;;;;;;;8.63;100.00;98651.22;678250;28;1045;-79
2022/04/07 01:00:21;;;;;;;4.53;2.08;;;;;;;8.61;100.00;98653.03;679172;28;1181;-79
2022/04/07 01:00:41;;;;;;;4.50;2.30;;;;;;;8.63;100.00;98656.41;678164;28;4311;-79
2022/04/07 01:01:02;;;;;;;4.17;1.87;;;;;;;8.65;100.00;98653.78;675552;29;843;-79
2022/04/07 01:01:27;;;;;;;5.32;2.22;;;;;;;8.65;100.00;98659.84;678039;29;1436;-78
2022/04/07 01:01:49;;;;;;;6.78;2.50;;;;;;;8.77;100.00;98650.81;675712;29;1174;-79
2022/04/07 01:02:10;;;;;;;5.40;2.08;;;;;;;8.77;99.97;98655.19;679496;28;1370;-78
2022/04/07 01:02:30;;;;;;;5.57;2.20;;;;;;;8.71;100.00;98645.78;683067;28;1427;-79
2022/04/07 01:02:51;;;;;;;4.87;2.17;;;;;;;8.79;100.00;98649.03;686745;28;1544;-79
2022/04/07 01:03:12;;;;;;;3.92;2.05;;;;;;;8.81;99.09;98647.22;680788;28;1396;-78
2022/04/07 01:03:32;;;;;;;3.97;1.90;;;;;;;8.86;98.37;98645.31;680356;28;1383;-78
2022/04/07 01:03:54;;;;;;;5.57;2.50;;;;;;;8.79;100.00;98650.75;679199;28;5407;-80
2022/04/07 01:04:15;;;;;;;4.85;2.13;;;;;;;8.89;97.24;98638.31;682552;28;1323;-79
2022/04/07 01:04:35;;;;;;;3.30;1.65;;;;;;;8.93;98.17;98634.72;685729;28;1311;-79
2022/04/07 01:04:57;;;;;;;3.67;1.70;;;;;;;8.90;98.21;98646.06;681959;28;1470;-78
2022/04/07 01:05:20;;;;;;;4.35;1.80;;;;;;;8.84;99.28;98649.72;678882;28;1542;-78
2022/04/07 01:05:40;;;;;;;4.40;2.05;;;;;;;8.80;99.65;98648.09;681593;28;1276;-79
2022/04/07 01:06:02;;;;;;;5.40;2.40;;;;;;;8.82;99.67;98651.53;681048;28;1859;-78
2022/04/07 01:06:22;;;;;;;5.03;2.60;;;;;;;8.83;100.00;98640.22;682195;28;1313;-79
2022/04/07 01:06:43;;;;;;;4.78;2.38;;;;;;;8.79;99.16;98649.03;677956;28;4293;-79
2022/04/07 01:07:06;;;;;;;5.80;2.10;;;;;;;8.81;98.71;98648.97;675725;29;1332;-79
2022/04/07 01:07:26;;;;;;;6.32;1.95;;;;;;;8.78;99.16;98654.28;679085;29;1644;-78
2022/04/07 01:07:47;;;;;;;6.03;2.30;;;;;;;8.78;100.00;98646.47;677082;29;1222;-79
2022/04/07 01:08:09;;;;;;;3.97;1.83;;;;;;;8.77;98.25;98656.03;680792;28;1346;-80
2022/04/07 01:08:30;;;;;;;3.88;1.90;;;;;;;8.76;99.38;98646.50;678956;28;1220;-79
2022/04/07 01:08:53;;;;;;;5.93;2.25;;;;;;;8.81;98.99;98648.97;685268;28;1507;-79
2022/04/07 01:09:18;;;;;;;5.18;1.90;;;;;;;8.82;98.37;98643.72;680624;28;1424;-79
2022/04/07 01:09:38;;;;;;;5.60;2.15;;;;;;;8.80;99.51;98645.50;673965;28;4458;-79
2022/04/07 01:09:59;;;;;;;5.47;2.38;;;;;;;8.74;99.57;98635.28;675596;29;1425;-79
2022/04/07 01:10:20;;;;;;;5.37;1.90;;;;;;;8.73;100.00;98636.16;679386;29;1154;-79
2022/04/07 01:10:42;;;;;;;4.68;1.90;;;;;;;8.71;100.00;98639.72;684928;28;1156;-77
2022/04/07 01:11:02;;;;;;;4.63;2.03;;;;;;;8.67;99.64;98629.38;681777;28;1390;-77
2022/04/07 01:11:26;;;;;;;5.57;2.10;;;;;;;8.64;100.00;98633.81;675661;28;1654;-78
2022/04/07 01:11:50;;;;;;;5.47;1.95;;;;;;;8.65;99.67;98632.94;676983;29;1288;-78
2022/04/07 01:12:11;;;;;;;5.25;2.17;;;;;;;8.71;100.00;98635.38;677616;29;1350;-79
2022/04/07 01:12:31;;;;;;;6.07;2.03;;;;;;;8.76;99.61;98645.66;675212;29;1336;-78
2022/04/07 01:12:51;;;;;;;6.05;1.88;;;;;;;8.81;97.16;98641.16;676600;29;5744;-78
2022/04/07 01:13:12;;;;;;;4.53;1.83;;;;;;;8.88;97.40;98634.84;678120;29;1533;-78
2022/04/07 01:13:59;;;;;;;3.58;1.73;;;;;;;8.99;97.72;98637.97;678347;29;1923;-79
2022/04/07 01:14:19;;;;;;;4.25;1.75;;;;;;;8.97;96.21;98633.72;677963;28;1671;-80
2022/04/07 01:14:56;;;;;;;4.07;1.60;;;;;;;8.97;96.33;98633.72;686283;28;1286;-80
2022/04/07 01:15:17;;;;;;;5.60;1.88;;;;;;;8.95;98.04;98631.16;680523;28;1474;-78
2022/04/07 01:15:38;;;;;;;3.55;1.55;;;;;;;8.93;98.47;98634.72;679981;28;4359;-79
2022/04/07 01:16:00;;;;;;;4.32;1.58;;;;;;;8.97;97.93;98624.16;679965;28;1364;-79
2022/04/07 01:16:26;;;;;;;3.88;1.70;;;;;;;9.02;98.61;98624.00;677266;29;1430;-79
2022/04/07 01:16:47;;;;;;;3.83;1.80;;;;;;;8.90;99.97;98629.59;676861;29;1364;-79
2022/04/07 01:17:07;;;;;;;4.93;1.80;;;;;;;8.86;99.80;98628.81;675941;29;1152;-80
2022/04/07 01:17:28;;;;;;;5.45;1.90;;;;;;;8.79;98.32;98617.75;677449;29;1549;-79
2022/04/07 01:17:48;;;;;;;4.35;1.77;;;;;;;8.78;99.29;98629.06;677443;29;1057;-79
2022/04/07 01:18:09;;;;;;;3.87;1.63;;;;;;;8.82;99.34;98622.00;681732;28;1411;-79
2022/04/07 01:18:29;;;;;;;3.63;1.77;;;;;;;8.78;99.80;98630.84;677459;29;1838;-78
2022/04/07 01:18:51;;;;;;;3.17;1.58;;;;;;;8.79;97.76;98617.75;677526;28;4429;-79
2022/04/07 01:19:11;;;;;;;3.90;1.50;;;;;;;8.84;96.97;98620.22;683059;28;4043;-79
2022/04/07 01:19:32;;;;;;;3.95;1.60;;;;;;;8.82;97.22;98620.25;683099;28;1161;-79
2022/04/07 01:19:53;;;;;;;4.50;1.80;;;;;;;8.80;98.05;98631.63;688375;28;1221;-79
2022/04/07 01:20:14;;;;;;;5.03;1.83;;;;;;;8.81;96.90;98626.38;685834;28;1493;-79
2022/04/07 01:20:34;;;;;;;3.92;1.70;;;;;;;8.86;97.02;98621.88;682998;28;1279;-79
2022/04/07 01:20:54;;;;;;;3.73;1.70;;;;;;;8.95;96.87;98622.50;676976;29;1175;-79
2022/04/07 01:21:17;;;;;;;4.40;1.88;;;;;;;8.96;99.56;98619.00;680826;28;1473;-78
2022/04/07 01:21:38;;;;;;;4.93;2.00;;;;;;;8.90;99.26;98625.22;678584;28;4697;-79
2022/04/07 01:21:58;;;;;;;5.80;1.83;;;;;;;8.83;100.00;98616.78;680984;28;1111;-79
2022/04/07 01:22:22;;;;;;;4.80;1.88;;;;;;;8.90;99.01;98614.81;675210;29;1337;-79
2022/04/07 01:22:46;;;;;;;3.85;1.60;;;;;;;8.97;96.30;98616.34;676444;29;1388;-79
2022/04/07 01:23:10;;;;;;;4.63;1.70;;;;;;;8.96;96.21;98611.19;677119;29;1224;-79
2022/04/07 01:23:34;;;;;;;5.88;1.73;;;;;;;8.95;97.21;98622.50;679925;28;1410;-78
2022/04/07 01:24:08;;;;;;;6.05;1.80;;;;;;;8.92;97.17;98612.19;682202;28;1324;-79
2022/04/07 01:24:31;;;;;;;4.78;1.70;;;;;;;8.91;95.49;98607.84;681725;28;1514;-79
2022/04/07 01:24:52;;;;;;;4.05;1.50;;;;;;;8.85;96.63;98604.53;673742;28;4298;-78
2022/04/07 01:25:13;;;;;;;4.88;1.90;;;;;;;8.79;97.94;98607.34;674985;29;1288;-79
2022/04/07 01:25:33;;;;;;;4.63;1.70;;;;;;;8.77;98.00;98616.94;675351;29;912;-78
2022/04/07 01:25:54;;;;;;;3.90;1.60;;;;;;;8.78;99.06;98604.78;678355;29;1225;-79
2022/04/07 01:26:15;;;;;;;4.35;1.65;;;;;;;8.88;97.95;98606.19;679776;28;1560;-78
2022/04/07 01:26:43;;;;;;;4.13;1.63;;;;;;;8.84;98.71;98613.25;675888;29;1715;-79
2022/04/07 01:27:04;;;;;;;5.20;1.80;;;;;;;8.81;98.17;98615.09;680660;28;1388;-79
2022/04/07 01:27:24;;;;;;;4.72;1.85;;;;;;;8.78;98.65;98605.63;676490;29;1576;-78
2022/04/07 01:27:49;;;;;;;4.60;1.80;;;;;;;8.74;99.03;98609.22;673409;29;4292;-79
2022/04/07 01:28:09;;;;;;;3.60;1.58;;;;;;;8.77;97.59;98606.53;678826;29;1277;-79
2022/04/07 01:28:30;;;;;;;4.17;1.70;;;;;;;8.79;97.38;98602.13;676403;29;1383;-79
2022/04/07 01:28:51;;;;;;;3.42;1.50;;;;;;;8.82;98.04;98602.03;679629;28;1432;-78
2022/04/07 01:29:14;;;;;;;5.70;1.70;;;;;;;8.85;97.31;98606.28;681906;28;1306;-78
2022/04/07 01:29:34;;;;;;;3.85;1.55;;;;;;;8.87;97.47;98604.47;678889;28;1081;-79
2022/04/07 01:29:56;;;;;;;3.97;1.58;;;;;;;8.89;97.42;98601.81;680919;28;1212;-79
2022/04/07 01:30:17;;;;;;;4.97;1.65;;;;;;;8.86;97.90;98601.03;686117;28;1760;-78
2022/04/07 01:30:37;;;;;;;4.55;1.80;;;;;;;8.95;96.55;98597.28;681098;28;4327;-79
2022/04/07 01:30:58;;;;;;;4.43;1.70;;;;;;;8.97;96.02;98607.66;681526;28;1354;-79
2022/04/07 01:31:18;;;;;;;3.70;1.50;;;;;;;9.01;95.55;98604.94;681289;28;1375;-78
2022/04/07 01:31:39;;;;;;;3.55;1.50;;;;;;;8.91;97.17;98605.25;681034;28;1090;-79
2022/04/07 01:32:08;;;;;;;3.33;1.70;;;;;;;8.91;98.16;98600.88;682402;28;1327;-79
2022/04/07 01:32:38;;;;;;;4.22;1.70;;;;;;;8.89;98.02;98607.03;679770;28;963;-78
2022/04/07 01:32:59;;;;;;;3.72;1.70;;;;;;;8.85;97.47;98601.94;677714;29;1015;-79
2022/04/07 01:33:20;;;;;;;4.75;1.80;;;;;;;8.91;96.98;98602.66;683434;28;1895;-79
2022/04/07 01:33:41;;;;;;;4.78;1.70;;;;;;;8.84;97.68;98597.59;681522;28;4503;-79
2022/04/07 01:34:05;;;;;;;5.00;1.63;;;;;;;8.82;96.80;98602.03;683947;28;1611;-79
2022/04/07 01:34:26;;;;;;;4.57;1.90;;;;;;;8.79;97.40;98609.06;682838;28;1645;-79
2022/04/07 01:34:46;;;;;;;4.90;1.90;;;;;;;8.82;97.43;98596.81;681773;28;1251;-79
2022/04/07 01:35:08;;;;;;;5.83;1.97;;;;;;;8.78;98.34;98600.41;681069;28;1295;-79
2022/04/07 01:35:29;;;;;;;5.18;2.15;;;;;;;8.68;98.74;98601.56;681985;28;954;-79
2022/04/07 01:35:51;;;;;;;5.15;1.98;;;;;;;8.65;97.52;98594.72;678976;28;1323;-77
2022/04/07 01:36:13;;;;;;;4.88;1.85;;;;;;;8.67;97.16;98597.28;678231;29;1699;-79
2022/04/07 01:36:39;;;;;;;4.38;1.70;;;;;;;8.67;97.71;98598.13;683303;28;1521;-79
2022/04/07 01:37:00;;;;;;;5.35;1.85;;;;;;;8.74;96.89;98597.97;679716;28;6400;-80
2022/04/07 01:37:21;;;;;;;4.38;1.77;;;;;;;8.76;97.91;98598.75;680249;28;1137;-79
2022/04/07 01:37:44;;;;;;;5.05;1.77;;;;;;;8.78;98.22;98594.38;681049;28;1426;-78
2022/04/07 01:38:04;;;;;;;6.03;1.73;;;;;;;8.72;97.83;98592.78;680422;28;1025;-79
2022/04/07 01:38:25;;;;;;;5.17;1.83;;;;;;;8.71;98.42;98587.59;682538;28;1248;-79
2022/04/07 01:38:47;;;;;;;4.53;1.73;;;;;;;8.69;99.42;98601.56;680234;28;1599;-79
2022/04/07 01:39:09;;;;;;;4.43;1.80;;;;;;;8.67;97.96;98586.88;681383;28;1418;-79
2022/04/07 01:39:30;;;;;;;4.13;1.73;;;;;;;8.73;97.09;98602.28;679619;28;1439;-79
2022/04/07 01:39:51;;;;;;;3.30;1.50;;;;;;;8.72;97.71;98589.31;677647;29;4347;-79
2022/04/07 01:40:15;;;;;;;3.72;1.73;;;;;;;8.66;98.54;98599.03;675044;29;1232;-79
2022/04/07 01:40:36;;;;;;;4.80;1.80;;;;;;;8.76;99.05;98593.53;677046;29;2101;-79
2022/04/07 01:41:00;;;;;;;5.10;1.70;;;;;;;8.73;100.00;98586.66;678004;28;1383;-79
2022/04/07 01:41:21;;;;;;;4.93;1.83;;;;;;;8.67;100.00;98590.31;682782;28;1528;-77
2022/04/07 01:41:43;;;;;;;3.88;1.70;;;;;;;8.64;98.78;98593.03;682724;28;1508;-79
2022/04/07 01:42:05;;;;;;;3.88;1.70;;;;;;;8.71;98.63;98588.47;682847;28;892;-79
2022/04/07 01:42:26;;;;;;;4.95;1.70;;;;;;;8.73;97.24;98589.28;678272;29;1148;-78
2022/04/07 01:42:49;;;;;;;4.27;1.80;;;;;;;8.83;96.51;98588.09;680103;28;4370;-79
2022/04/07 01:43:10;;;;;;;4.15;1.92;;;;;;;8.81;97.61;98600.31;681580;28;1597;-77
2022/04/07 01:43:30;;;;;;;5.63;1.90;;;;;;;8.88;97.37;98589.72;678931;28;1599;-80
2022/04/07 01:43:54;;;;;;;5.05;1.92;;;;;;;8.91;97.20;98589.63;680855;28;1356;-79
2022/04/07 01:44:17;;;;;;;4.75;1.98;;;;;;;8.79;99.90;98591.72;681262;28;1222;-79
2022/04/07 01:44:42;;;;;;;4.68;1.92;;;;;;;8.78;98.62;98591.75;682656;28;1300;-79